Buffalo (BUF/KBUF)

Information

Location
Buffalo, NY
Local Time
20:12 / 8:12 pm
GMT Time
00:12 / 12:12 am
Gates
No FAA reported delays
METAR KBUF 252354Z 08007KT 10SM FEW060 BKN100 BKN170 BKN270 17/11 A2984 RMK AO2 SLP107 60000 T01670111 10178 20144 56016
TAF KBUF 252320Z 2600/2624 07010KT P6SM BKN070 FM260500 09005KT P6SM BKN045 FM260900 08004KT P6SM BKN025 FM261700 09006KT P6SM SCT035 SCT250 FM262100 13006KT P6SM SCT045 SCT250